createdAt,value
2019-01-10T00:00:14.865Z,96136.64
2019-01-10T00:01:19.527Z,96139.50
2019-01-10T00:02:22.822Z,96141.30
2019-01-10T00:03:26.116Z,96140.47
2019-01-10T00:04:29.418Z,96144.72
2019-01-10T00:05:32.811Z,96146.25
2019-01-10T00:06:36.502Z,96149.94
2019-01-10T00:07:39.955Z,96140.51
2019-01-10T00:08:43.240Z,96150.77
2019-01-10T00:09:46.887Z,96146.25
2019-01-10T00:10:50.542Z,96149.86
2019-01-10T00:11:53.836Z,96148.31
2019-01-10T00:12:57.190Z,96147.61
2019-01-10T00:14:00.477Z,96147.69
2019-01-10T00:15:05.155Z,96149.56
2019-01-10T00:16:08.484Z,96148.17
2019-01-10T00:17:11.766Z,96149.41
2019-01-10T00:18:15.126Z,96156.17
2019-01-10T00:19:18.418Z,96151.39
2019-01-10T00:20:21.697Z,96157.39
2019-01-10T00:21:25.100Z,96153.41
2019-01-10T00:22:28.467Z,96151.86
2019-01-10T00:23:31.748Z,96154.50
2019-01-10T00:24:35.038Z,96154.77
2019-01-10T00:25:38.334Z,96155.03
2019-01-10T00:26:42.084Z,96158.72
2019-01-10T00:27:45.436Z,96162.18
2019-01-10T00:28:49.027Z,96165.11
2019-01-10T00:29:52.355Z,96164.33
2019-01-10T00:30:55.648Z,96163.88
2019-01-10T00:31:58.933Z,96160.98
2019-01-10T00:33:02.225Z,96162.27
2019-01-10T00:34:05.512Z,96163.88
2019-01-10T00:35:09.865Z,96161.52
2019-01-10T00:36:13.155Z,96171.06
2019-01-10T00:37:16.465Z,96167.34
2019-01-10T00:38:19.793Z,96164.41
2019-01-10T00:39:23.143Z,96160.42
2019-01-10T00:40:26.441Z,96155.16
2019-01-10T00:41:29.726Z,96155.77
2019-01-10T00:42:33.087Z,96162.34
2019-01-10T00:43:36.510Z,96157.13
2019-01-10T00:44:39.798Z,96163.13
2019-01-10T00:45:43.091Z,96165.19
2019-01-10T00:46:46.372Z,96169.06
2019-01-10T00:47:49.730Z,96168.23
2019-01-10T00:48:53.141Z,96173.50
2019-01-10T00:49:56.421Z,96172.70
2019-01-10T00:51:00.066Z,96172.52
2019-01-10T00:52:03.493Z,96174.10
2019-01-10T00:53:06.780Z,96172.56
2019-01-10T00:54:10.491Z,96174.67
2019-01-10T00:55:13.861Z,96176.58
2019-01-10T00:56:17.444Z,96178.12
2019-01-10T00:57:20.731Z,96176.77
2019-01-10T00:58:24.025Z,96179.59
2019-01-10T00:59:27.343Z,96174.02
2019-01-10T01:00:30.617Z,96176.65
2019-01-10T01:01:33.904Z,96174.51
2019-01-10T01:02:37.582Z,96174.28
2019-01-10T01:03:40.907Z,96163.76
2019-01-10T01:04:44.228Z,96168.45
2019-01-10T01:05:47.579Z,96169.95
2019-01-10T01:06:50.860Z,96172.83
2019-01-10T01:07:54.146Z,96181.03
2019-01-10T01:08:57.878Z,96171.56
2019-01-10T01:10:01.155Z,96172.09
2019-01-10T01:11:04.446Z,96169.76
2019-01-10T01:12:07.733Z,96168.97
2019-01-10T01:13:11.076Z,96173.45
2019-01-10T01:14:14.468Z,96172.14
2019-01-10T01:15:18.731Z,96172.66
2019-01-10T01:16:22.016Z,96175.77
2019-01-10T01:17:25.299Z,96173.14
2019-01-10T01:18:28.588Z,96173.13
2019-01-10T01:19:31.878Z,96177.14
2019-01-10T01:20:35.268Z,96172.70
2019-01-10T01:21:38.568Z,96173.98
2019-01-10T01:22:41.849Z,96171.56
2019-01-10T01:23:45.507Z,96166.30
2019-01-10T01:24:48.788Z,96169.68
2019-01-10T01:25:52.095Z,96167.27
2019-01-10T01:26:55.396Z,96167.27
2019-01-10T01:27:59.089Z,96164.63
2019-01-10T01:29:02.410Z,96166.69
2019-01-10T01:30:11.726Z,96165.09
2019-01-10T01:31:15.045Z,96167.17
2019-01-10T01:32:18.327Z,96165.63
2019-01-10T01:33:21.610Z,96163.78
2019-01-10T01:34:24.940Z,96164.05
2019-01-10T01:35:28.621Z,96169.09
2019-01-10T01:36:31.947Z,96171.25
2019-01-10T01:37:35.264Z,96169.63
2019-01-10T01:38:38.589Z,96170.91
2019-01-10T01:39:41.876Z,96167.83
2019-01-10T01:40:45.162Z,96162.66
2019-01-10T01:41:48.559Z,96161.91
2019-01-10T01:42:51.837Z,96160.86
2019-01-10T01:43:55.185Z,96157.45
2019-01-10T01:44:58.852Z,96151.95
2019-01-10T01:46:02.138Z,96147.70
2019-01-10T01:47:05.526Z,96146.08
2019-01-10T01:48:08.869Z,96150.20
2019-01-10T01:49:12.322Z,96138.66
2019-01-10T01:50:20.956Z,96132.04
2019-01-10T01:51:24.367Z,96130.14
2019-01-10T01:52:27.681Z,96122.30
2019-01-10T01:53:31.031Z,96120.02
2019-01-10T01:54:34.436Z,96122.44
2019-01-10T01:55:37.691Z,96124.85
2019-01-10T01:56:40.971Z,96126.65
2019-01-10T01:57:44.299Z,96133.39
2019-01-10T01:58:47.731Z,96126.45
2019-01-10T01:59:51.015Z,96135.16
2019-01-10T02:00:54.307Z,96139.36
2019-01-10T02:01:57.592Z,96134.82
2019-01-10T02:03:00.912Z,96146.16
2019-01-10T02:04:04.250Z,96145.36
2019-01-10T02:05:08.718Z,96145.63
2019-01-10T02:06:12.014Z,96148.56
2019-01-10T02:07:15.734Z,96142.77
2019-01-10T02:08:19.125Z,96142.56
2019-01-10T02:09:22.420Z,96138.05
2019-01-10T02:10:26.747Z,96136.42
2019-01-10T02:11:30.100Z,96130.36
2019-01-10T02:12:33.393Z,96133.52
2019-01-10T02:13:36.807Z,96124.57
2019-01-10T02:14:40.098Z,96131.16
2019-01-10T02:15:43.459Z,96123.83
2019-01-10T02:16:46.740Z,96120.19
2019-01-10T02:17:50.107Z,96115.45
2019-01-10T02:18:53.757Z,96117.03
2019-01-10T02:19:57.045Z,96114.66
2019-01-10T02:21:00.413Z,96118.66
2019-01-10T02:22:04.016Z,96114.67
2019-01-10T02:23:07.413Z,96113.34
2019-01-10T02:24:10.703Z,96117.03
2019-01-10T02:25:18.422Z,96111.28
2019-01-10T02:26:21.827Z,96114.66
2019-01-10T02:27:25.124Z,96112.23
2019-01-10T02:28:28.996Z,96116.19
2019-01-10T02:29:32.365Z,96112.50
2019-01-10T02:30:41.768Z,96113.81
2019-01-10T02:31:40.818Z,96118.51
2019-01-10T02:32:44.106Z,96111.13
2019-01-10T02:33:47.712Z,96112.67
2019-01-10T02:34:50.991Z,96115.30
2019-01-10T02:35:54.274Z,96122.92
2019-01-10T02:36:57.560Z,96116.25
2019-01-10T02:38:00.883Z,96115.20
2019-01-10T02:39:05.805Z,96110.45
2019-01-10T02:40:10.076Z,96112.23
2019-01-10T02:41:13.341Z,96118.22
2019-01-10T02:42:16.958Z,96112.59
2019-01-10T02:43:26.294Z,96113.06
2019-01-10T02:44:25.341Z,96115.64
2019-01-10T02:45:28.633Z,96110.61
2019-01-10T02:46:31.923Z,96113.98
2019-01-10T02:47:35.227Z,96119.24
2019-01-10T02:48:38.573Z,96118.41
2019-01-10T02:49:42.228Z,96116.02
2019-01-10T02:50:45.531Z,96114.37
2019-01-10T02:51:48.918Z,96112.55
2019-01-10T02:52:52.228Z,96110.09
2019-01-10T02:53:55.948Z,96110.53
2019-01-10T02:54:59.233Z,96106.18
2019-01-10T02:56:02.594Z,96112.34
2019-01-10T02:57:05.872Z,96107.66
2019-01-10T02:58:09.203Z,96110.61
2019-01-10T02:59:12.484Z,96106.14
2019-01-10T03:00:18.785Z,96106.03
2019-01-10T03:01:22.141Z,96100.02
2019-01-10T03:02:25.429Z,96111.13
2019-01-10T03:03:28.734Z,96113.02
2019-01-10T03:04:32.061Z,96114.50
2019-01-10T03:05:35.383Z,96117.44
2019-01-10T03:06:39.213Z,96114.51
2019-01-10T03:07:42.507Z,96111.13
2019-01-10T03:08:45.808Z,96117.41
2019-01-10T03:09:49.104Z,96117.96
2019-01-10T03:10:52.387Z,96122.18
2019-01-10T03:11:55.677Z,96127.44
2019-01-10T03:12:58.981Z,96122.52
2019-01-10T03:14:02.407Z,96119.59
2019-01-10T03:15:07.040Z,96117.52
2019-01-10T03:16:10.333Z,96115.49
2019-01-10T03:17:13.629Z,96115.49
2019-01-10T03:18:16.922Z,96116.25
2019-01-10T03:19:20.320Z,96115.19
2019-01-10T03:20:23.745Z,96115.69
2019-01-10T03:21:27.076Z,96113.36
2019-01-10T03:22:30.373Z,96110.42
2019-01-10T03:23:33.701Z,96109.86
2019-01-10T03:24:37.358Z,96109.77
2019-01-10T03:25:40.737Z,96106.87
2019-01-10T03:26:44.123Z,96105.34
2019-01-10T03:27:47.984Z,96105.64
2019-01-10T03:28:51.282Z,96104.56
2019-01-10T03:29:54.613Z,96105.09
2019-01-10T03:30:57.918Z,96106.40
2019-01-10T03:32:01.272Z,96101.09
2019-01-10T03:33:04.559Z,96104.20
2019-01-10T03:34:07.846Z,96103.68
2019-01-10T03:35:11.622Z,96109.28
2019-01-10T03:36:14.920Z,96100.95
2019-01-10T03:37:18.208Z,96096.74
2019-01-10T03:38:21.517Z,96096.13
2019-01-10T03:39:24.798Z,96091.89
2019-01-10T03:40:28.508Z,96092.16
2019-01-10T03:41:31.796Z,96094.03
2019-01-10T03:42:35.108Z,96095.39
2019-01-10T03:43:46.868Z,96093.59
2019-01-10T03:44:43.418Z,96096.56
2019-01-10T03:45:46.718Z,96099.20
2019-01-10T03:46:50.001Z,96097.05
2019-01-10T03:47:53.289Z,96096.78
2019-01-10T03:48:56.648Z,96092.84
2019-01-10T03:49:59.935Z,96095.96
2019-01-10T03:51:03.265Z,96085.44
2019-01-10T03:52:06.645Z,96086.80
2019-01-10T03:53:09.934Z,96087.62
2019-01-10T03:54:13.307Z,96085.75
2019-01-10T03:55:16.664Z,96092.05
2019-01-10T03:56:19.996Z,96093.41
2019-01-10T03:57:23.288Z,96091.86
2019-01-10T03:58:26.669Z,96091.61
2019-01-10T03:59:30.039Z,96095.84
2019-01-10T04:00:33.330Z,96101.86
2019-01-10T04:01:36.631Z,96102.61
2019-01-10T04:02:39.933Z,96113.91
2019-01-10T04:03:43.229Z,96105.80
2019-01-10T04:04:46.934Z,96103.73
2019-01-10T04:05:50.699Z,96107.13
2019-01-10T04:06:54.004Z,96108.13
2019-01-10T04:07:57.289Z,96107.91
2019-01-10T04:09:00.595Z,96111.36
2019-01-10T04:10:05.119Z,96111.63
2019-01-10T04:11:08.482Z,96117.70
2019-01-10T04:12:11.820Z,96119.02
2019-01-10T04:13:15.109Z,96116.39
2019-01-10T04:14:18.408Z,96120.63
2019-01-10T04:15:21.859Z,96124.84
2019-01-10T04:16:25.147Z,96129.80
2019-01-10T04:17:28.470Z,96129.83
2019-01-10T04:18:31.753Z,96131.38
2019-01-10T04:19:35.045Z,96123.22
2019-01-10T04:20:38.338Z,96133.51
2019-01-10T04:21:41.633Z,96139.00
2019-01-10T04:22:45.418Z,96147.11
2019-01-10T04:23:48.705Z,96147.94
2019-01-10T04:24:51.991Z,96152.89
2019-01-10T04:25:55.301Z,96153.16
2019-01-10T04:26:58.592Z,96152.11
2019-01-10T04:28:01.907Z,96156.55
2019-01-10T04:29:05.199Z,96157.04
2019-01-10T04:30:15.091Z,96154.90
2019-01-10T04:31:18.387Z,96163.02
2019-01-10T04:32:21.675Z,96166.96
2019-01-10T04:33:25.010Z,96170.71
2019-01-10T04:34:28.298Z,96176.53
2019-01-10T04:35:31.581Z,96177.55
2019-01-10T04:36:34.885Z,96183.06
2019-01-10T04:37:38.168Z,96186.42
2019-01-10T04:38:41.939Z,96183.00
2019-01-10T04:39:45.230Z,96181.95
2019-01-10T04:40:48.590Z,96186.91
2019-01-10T04:41:51.876Z,96188.42
2019-01-10T04:42:55.159Z,96191.23
2019-01-10T04:44:06.939Z,96190.94
2019-01-10T04:45:04.922Z,96192.22
2019-01-10T04:46:08.206Z,96193.53
2019-01-10T04:47:11.568Z,96191.95
2019-01-10T04:48:14.869Z,96191.23
2019-01-10T04:49:18.198Z,96197.40
2019-01-10T04:50:21.498Z,96191.39
2019-01-10T04:51:25.095Z,96198.29
2019-01-10T04:52:28.421Z,96194.11
2019-01-10T04:53:31.717Z,96201.19
2019-01-10T04:54:38.408Z,96193.55
2019-01-10T04:55:40.055Z,96197.00
2019-01-10T04:56:43.350Z,96193.33
2019-01-10T04:57:46.701Z,96200.19
2019-01-10T04:58:49.991Z,96196.54
2019-01-10T04:59:53.322Z,96202.06
2019-01-10T05:00:56.617Z,96204.42
2019-01-10T05:01:59.906Z,96200.45
2019-01-10T05:03:03.209Z,96202.33
2019-01-10T05:04:06.591Z,96195.75
2019-01-10T05:05:09.921Z,96198.11
2019-01-10T05:06:13.213Z,96203.08
2019-01-10T05:07:16.505Z,96202.06
2019-01-10T05:08:20.295Z,96199.72
2019-01-10T05:09:23.666Z,96203.66
2019-01-10T05:10:27.378Z,96191.84
2019-01-10T05:11:34.231Z,96193.09
2019-01-10T05:12:37.545Z,96191.74
2019-01-10T05:13:40.833Z,96198.02
2019-01-10T05:14:44.126Z,96204.11
2019-01-10T05:15:47.531Z,96203.08
2019-01-10T05:16:50.894Z,96198.88
2019-01-10T05:17:54.176Z,96192.30
2019-01-10T05:18:57.839Z,96192.56
2019-01-10T05:20:01.150Z,96188.59
2019-01-10T05:21:04.490Z,96186.48
2019-01-10T05:22:07.835Z,96186.75
2019-01-10T05:23:11.119Z,96192.04
2019-01-10T05:24:14.404Z,96190.52
2019-01-10T05:25:17.715Z,96196.30
2019-01-10T05:26:21.109Z,96197.09
2019-01-10T05:27:24.520Z,96194.73
2019-01-10T05:28:27.977Z,96193.65
2019-01-10T05:29:31.325Z,96192.04
2019-01-10T05:30:34.721Z,96194.88
2019-01-10T05:31:38.294Z,96200.89
2019-01-10T05:32:41.841Z,96200.89
2019-01-10T05:33:45.206Z,96194.55
2019-01-10T05:34:48.564Z,96194.28
2019-01-10T05:35:52.219Z,96199.50
2019-01-10T05:36:55.583Z,96200.29
2019-01-10T05:37:59.071Z,96206.31
2019-01-10T05:39:02.512Z,96200.52
2019-01-10T05:40:09.308Z,96204.50
2019-01-10T05:41:12.684Z,96205.55
2019-01-10T05:42:16.126Z,96212.09
2019-01-10T05:43:19.591Z,96215.45
2019-01-10T05:44:26.642Z,96213.64
2019-01-10T05:45:28.187Z,96213.94
2019-01-10T05:46:31.481Z,96218.41
2019-01-10T05:47:36.943Z,96213.45
2019-01-10T05:48:47.279Z,96218.70
2019-01-10T05:49:45.971Z,96214.23
2019-01-10T05:50:49.260Z,96226.27
2019-01-10T05:51:52.802Z,96226.00
2019-01-10T05:52:56.104Z,96221.05
2019-01-10T05:53:59.498Z,96222.09
2019-01-10T05:55:02.900Z,96225.25
2019-01-10T05:56:15.065Z,96235.02
2019-01-10T05:57:11.510Z,96238.20
2019-01-10T05:58:15.008Z,96237.73
2019-01-10T05:59:18.467Z,96241.94
2019-01-10T06:00:25.989Z,96243.23
2019-01-10T06:01:29.386Z,96250.01
2019-01-10T06:02:32.818Z,96253.89
2019-01-10T06:03:36.186Z,96248.86
2019-01-10T06:04:39.641Z,96255.44
2019-01-10T06:05:43.153Z,96252.52
2019-01-10T06:06:46.516Z,96250.14
2019-01-10T06:07:49.943Z,96256.19
2019-01-10T06:08:53.378Z,96267.55
2019-01-10T06:09:57.020Z,96259.65
2019-01-10T06:11:00.456Z,96263.53
2019-01-10T06:12:04.003Z,96265.86
2019-01-10T06:13:07.320Z,96268.76
2019-01-10T06:14:10.754Z,96272.41
2019-01-10T06:15:17.662Z,96269.77
2019-01-10T06:16:20.941Z,96273.16
2019-01-10T06:17:24.391Z,96275.79
2019-01-10T06:18:28.133Z,96272.89
2019-01-10T06:19:31.983Z,96272.67
2019-01-10T06:20:35.519Z,96270.86
2019-01-10T06:21:38.994Z,96270.08
2019-01-10T06:22:42.435Z,96273.79
2019-01-10T06:23:45.931Z,96276.72
2019-01-10T06:24:49.283Z,96283.03
2019-01-10T06:25:52.760Z,96291.16
2019-01-10T06:26:56.252Z,96295.11
2019-01-10T06:27:59.856Z,96292.50
2019-01-10T06:29:03.327Z,96290.92
2019-01-10T06:30:15.782Z,96287.51
2019-01-10T06:31:19.246Z,96291.19
2019-01-10T06:32:22.669Z,96286.69
2019-01-10T06:33:26.096Z,96286.12
2019-01-10T06:34:29.376Z,96286.88
2019-01-10T06:35:32.738Z,96290.53
2019-01-10T06:36:36.122Z,96290.30
2019-01-10T06:37:39.514Z,96296.84
2019-01-10T06:38:42.834Z,96295.73
2019-01-10T06:39:46.195Z,96294.41
2019-01-10T06:40:49.550Z,96289.67
2019-01-10T06:41:53.199Z,96292.57
2019-01-10T06:42:56.558Z,96293.33
2019-01-10T06:43:59.993Z,96291.70
2019-01-10T06:45:03.423Z,96293.77
2019-01-10T06:46:06.779Z,96299.00
2019-01-10T06:47:10.321Z,96291.32
2019-01-10T06:48:14.010Z,96296.33
2019-01-10T06:49:17.503Z,96290.48
2019-01-10T06:50:21.065Z,96289.13
2019-01-10T06:51:24.930Z,96278.50
2019-01-10T06:52:28.399Z,96281.36
2019-01-10T06:53:31.754Z,96279.94
2019-01-10T06:54:35.090Z,96283.84
2019-01-10T06:55:38.441Z,96283.80
2019-01-10T06:56:41.872Z,96284.80
2019-01-10T06:57:45.327Z,96287.42
2019-01-10T06:58:49.061Z,96283.91
2019-01-10T06:59:52.563Z,96285.05
2019-01-10T07:00:55.987Z,96281.83
2019-01-10T07:01:59.433Z,96281.00
2019-01-10T07:03:02.967Z,96280.56
2019-01-10T07:04:06.331Z,96270.67
2019-01-10T07:05:11.164Z,96278.13
2019-01-10T07:06:14.604Z,96281.30
2019-01-10T07:07:17.900Z,96274.50
2019-01-10T07:08:21.232Z,96283.73
2019-01-10T07:09:24.602Z,96282.41
2019-01-10T07:10:29.061Z,96285.09
2019-01-10T07:11:32.649Z,96283.52
2019-01-10T07:12:36.010Z,96286.19
2019-01-10T07:13:39.349Z,96291.20
2019-01-10T07:14:42.636Z,96290.66
2019-01-10T07:15:45.926Z,96288.02
2019-01-10T07:16:53.694Z,96286.67
2019-01-10T07:17:54.285Z,96285.92
2019-01-10T07:18:57.704Z,96281.97
2019-01-10T07:20:01.069Z,96280.87
2019-01-10T07:21:04.468Z,96283.81
2019-01-10T07:22:07.735Z,96279.61
2019-01-10T07:23:11.032Z,96287.06
2019-01-10T07:24:14.355Z,96286.02
2019-01-10T07:25:17.680Z,96292.59
2019-01-10T07:26:20.967Z,96292.03
2019-01-10T07:27:24.263Z,96292.50
2019-01-10T07:28:27.631Z,96298.31
2019-01-10T07:29:30.973Z,96302.25
2019-01-10T07:30:36.161Z,96297.52
2019-01-10T07:31:39.299Z,96300.10
2019-01-10T07:32:42.600Z,96299.58
2019-01-10T07:33:45.895Z,96298.00
2019-01-10T07:34:49.240Z,96306.64
2019-01-10T07:35:54.266Z,96312.97
2019-01-10T07:36:57.624Z,96314.37
2019-01-10T07:38:00.931Z,96312.58
2019-01-10T07:39:07.025Z,96314.69
2019-01-10T07:40:13.385Z,96314.19
2019-01-10T07:41:16.679Z,96304.89
2019-01-10T07:42:19.974Z,96306.20
2019-01-10T07:43:23.839Z,96311.81
2019-01-10T07:44:27.232Z,96307.57
2019-01-10T07:45:30.568Z,96290.75
2019-01-10T07:46:33.935Z,96291.77
2019-01-10T07:47:49.763Z,96292.82
2019-01-10T07:48:53.126Z,96292.07
2019-01-10T07:49:57.652Z,96299.22
2019-01-10T07:51:00.991Z,96303.78
2019-01-10T07:52:04.283Z,96305.92
2019-01-10T07:53:07.574Z,96304.30
2019-01-10T07:54:10.871Z,96300.58
2019-01-10T07:55:14.581Z,96295.80
2019-01-10T07:56:17.898Z,96295.31
2019-01-10T07:57:21.193Z,96293.52
2019-01-10T07:58:24.474Z,96294.83
2019-01-10T07:59:28.238Z,96296.66
2019-01-10T08:00:31.535Z,96299.26
2019-01-10T08:01:34.948Z,96298.73
2019-01-10T08:02:38.237Z,96294.22
2019-01-10T08:03:41.588Z,96304.22
2019-01-10T08:04:44.916Z,96297.94
2019-01-10T08:05:48.521Z,96300.84
2019-01-10T08:06:51.855Z,96307.39
2019-01-10T08:07:55.191Z,96314.98
2019-01-10T08:08:58.507Z,96319.72
2019-01-10T08:10:01.798Z,96326.87
2019-01-10T08:11:05.150Z,96334.84
2019-01-10T08:12:08.479Z,96335.94
2019-01-10T08:13:11.770Z,96327.81
2019-01-10T08:14:15.058Z,96319.13
2019-01-10T08:15:20.591Z,96321.23
2019-01-10T08:16:23.877Z,96311.72
2019-01-10T08:17:27.193Z,96310.36
2019-01-10T08:18:30.729Z,96313.26
2019-01-10T08:19:34.125Z,96307.16
2019-01-10T08:20:37.414Z,96308.44
2019-01-10T08:21:40.716Z,96305.20
2019-01-10T08:22:44.049Z,96312.27
2019-01-10T08:23:47.721Z,96311.44
2019-01-10T08:24:51.454Z,96306.95
2019-01-10T08:25:54.746Z,96311.39
2019-01-10T08:26:58.037Z,96311.09
2019-01-10T08:28:01.352Z,96318.20
2019-01-10T08:29:05.128Z,96314.07
2019-01-10T08:30:11.701Z,96317.80
2019-01-10T08:31:15.047Z,96310.95
2019-01-10T08:32:18.352Z,96316.75
2019-01-10T08:33:21.645Z,96309.94
2019-01-10T08:34:25.013Z,96309.67
2019-01-10T08:35:28.380Z,96302.83
2019-01-10T08:36:32.550Z,96307.79
2019-01-10T08:37:36.143Z,96304.09
2019-01-10T08:38:39.474Z,96307.79
2019-01-10T08:39:42.767Z,96306.20
2019-01-10T08:40:46.055Z,96299.88
2019-01-10T08:41:49.423Z,96298.27
2019-01-10T08:42:52.844Z,96295.09
2019-01-10T08:43:56.200Z,96294.88
2019-01-10T08:44:59.500Z,96290.98
2019-01-10T08:46:02.769Z,96295.72
2019-01-10T08:47:06.083Z,96292.03
2019-01-10T08:48:09.361Z,96300.41
2019-01-10T08:49:12.696Z,96299.27
2019-01-10T08:50:18.798Z,96297.42
2019-01-10T08:51:22.453Z,96298.78
2019-01-10T08:52:26.689Z,96299.13
2019-01-10T08:53:29.973Z,96303.36
2019-01-10T08:54:33.304Z,96303.92
2019-01-10T08:55:36.668Z,96289.21
2019-01-10T08:56:40.037Z,96286.53
2019-01-10T08:57:43.332Z,96282.24
2019-01-10T08:58:46.630Z,96278.25
2019-01-10T08:59:49.957Z,96266.11
2019-01-10T09:00:53.341Z,96262.06
2019-01-10T09:01:56.628Z,96260.22
2019-01-10T09:02:59.932Z,96262.86
2019-01-10T09:04:03.295Z,96273.35
2019-01-10T09:05:07.046Z,96275.45
2019-01-10T09:06:10.334Z,96281.52
2019-01-10T09:07:13.652Z,96286.80
2019-01-10T09:08:16.918Z,96284.11
2019-01-10T09:09:20.234Z,96277.05
2019-01-10T09:10:25.280Z,96267.23
2019-01-10T09:11:28.641Z,96260.84
2019-01-10T09:12:32.490Z,96253.89
2019-01-10T09:13:35.855Z,96260.69
2019-01-10T09:14:39.141Z,96252.22
2019-01-10T09:15:42.448Z,96259.95
2019-01-10T09:16:45.740Z,96261.59
2019-01-10T09:17:49.045Z,96255.38
2019-01-10T09:18:52.332Z,96259.02
2019-01-10T09:19:55.618Z,96261.44
2019-01-10T09:21:04.158Z,96266.97
2019-01-10T09:22:04.105Z,96259.58
2019-01-10T09:23:07.389Z,96263.48
2019-01-10T09:24:10.671Z,96260.34
2019-01-10T09:25:13.958Z,96253.53
2019-01-10T09:26:17.286Z,96253.53
2019-01-10T09:27:21.417Z,96253.17
2019-01-10T09:28:24.714Z,96252.64
2019-01-10T09:29:28.027Z,96258.95
2019-01-10T09:30:31.319Z,96260.07
2019-01-10T09:31:34.641Z,96257.54
2019-01-10T09:32:37.930Z,96255.16
2019-01-10T09:33:41.289Z,96252.84
2019-01-10T09:34:44.573Z,96256.74
2019-01-10T09:35:47.860Z,96253.74
2019-01-10T09:36:51.199Z,96254.26
2019-01-10T09:37:54.754Z,96259.77
2019-01-10T09:38:58.040Z,96257.44
2019-01-10T09:40:01.342Z,96252.53
2019-01-10T09:41:04.615Z,96249.09
2019-01-10T09:42:07.947Z,96246.42
2019-01-10T09:43:11.597Z,96249.04
2019-01-10T09:44:14.879Z,96244.31
2019-01-10T09:45:20.218Z,96244.94
2019-01-10T09:46:26.676Z,96246.52
2019-01-10T09:47:30.039Z,96236.45
2019-01-10T09:48:33.409Z,96239.95
2019-01-10T09:49:36.773Z,96232.98
2019-01-10T09:50:40.057Z,96230.53
2019-01-10T09:51:44.388Z,96227.84
2019-01-10T09:52:47.851Z,96227.60
2019-01-10T09:53:51.256Z,96227.38
2019-01-10T09:54:54.550Z,96235.23
2019-01-10T09:55:57.848Z,96234.49
2019-01-10T09:57:01.228Z,96253.17
2019-01-10T09:58:04.953Z,96248.42
2019-01-10T09:59:08.244Z,96254.31
2019-01-10T10:00:17.835Z,96256.69
2019-01-10T10:01:21.328Z,96250.36
2019-01-10T10:02:24.713Z,96260.38
2019-01-10T10:03:28.034Z,96250.64
2019-01-10T10:04:31.334Z,96245.58
2019-01-10T10:05:34.627Z,96237.08
2019-01-10T10:06:37.914Z,96235.50
2019-01-10T10:07:41.211Z,96225.21
2019-01-10T10:08:44.948Z,96226.80
2019-01-10T10:09:48.237Z,96226.53
2019-01-10T10:10:51.518Z,96232.37
2019-01-10T10:11:54.804Z,96229.03
2019-01-10T10:12:58.159Z,96223.47
2019-01-10T10:14:01.480Z,96222.70
2019-01-10T10:15:09.361Z,96218.80
2019-01-10T10:16:12.178Z,96214.53
2019-01-10T10:17:15.536Z,96207.59
2019-01-10T10:18:18.898Z,96199.89
2019-01-10T10:19:22.230Z,96201.39
2019-01-10T10:20:25.573Z,96208.11
2019-01-10T10:21:28.860Z,96205.52
2019-01-10T10:22:32.151Z,96205.03
2019-01-10T10:23:35.770Z,96191.93
2019-01-10T10:24:39.098Z,96184.27
2019-01-10T10:25:42.460Z,96188.48
2019-01-10T10:26:45.766Z,96187.64
2019-01-10T10:27:49.190Z,96185.25
2019-01-10T10:28:52.604Z,96182.18
2019-01-10T10:29:56.002Z,96180.39
2019-01-10T10:30:59.298Z,96173.20
2019-01-10T10:32:02.649Z,96166.34
2019-01-10T10:33:05.938Z,96171.52
2019-01-10T10:34:09.241Z,96170.89
2019-01-10T10:35:12.643Z,96175.99
2019-01-10T10:36:15.946Z,96172.03
2019-01-10T10:37:19.300Z,96162.54
2019-01-10T10:38:22.584Z,96161.30
2019-01-10T10:39:25.983Z,96171.63
2019-01-10T10:40:29.347Z,96173.44
2019-01-10T10:41:32.642Z,96178.78
2019-01-10T10:42:35.926Z,96180.95
2019-01-10T10:43:39.230Z,96189.42
2019-01-10T10:44:42.577Z,96188.30
2019-01-10T10:45:45.998Z,96176.58
2019-01-10T10:46:49.286Z,96174.27
2019-01-10T10:47:52.641Z,96176.66
2019-01-10T10:48:55.925Z,96185.64
2019-01-10T10:49:59.217Z,96182.41
2019-01-10T10:51:02.601Z,96177.92
2019-01-10T10:52:05.889Z,96169.53
2019-01-10T10:53:09.770Z,96168.66
2019-01-10T10:54:13.035Z,96169.83
2019-01-10T10:55:16.344Z,96168.42
2019-01-10T10:56:19.666Z,96167.52
2019-01-10T10:57:23.020Z,96160.20
2019-01-10T10:58:26.317Z,96163.64
2019-01-10T10:59:29.637Z,96164.45
2019-01-10T11:00:33.172Z,96168.31
2019-01-10T11:01:36.519Z,96160.72
2019-01-10T11:02:39.862Z,96160.75
2019-01-10T11:03:43.147Z,96159.07
2019-01-10T11:04:46.429Z,96162.42
2019-01-10T11:05:49.779Z,96166.22
2019-01-10T11:06:53.112Z,96172.72
2019-01-10T11:07:56.404Z,96168.14
2019-01-10T11:09:08.825Z,96166.17
2019-01-10T11:10:08.199Z,96160.05
2019-01-10T11:11:11.491Z,96159.91
2019-01-10T11:12:14.886Z,96157.61
2019-01-10T11:13:18.319Z,96159.35
2019-01-10T11:14:21.615Z,96158.42
2019-01-10T11:15:24.977Z,96165.39
2019-01-10T11:16:28.340Z,96161.75
2019-01-10T11:17:31.660Z,96155.21
2019-01-10T11:18:34.940Z,96150.03
2019-01-10T11:19:38.305Z,96140.39
2019-01-10T11:20:42.053Z,96133.17
2019-01-10T11:21:45.357Z,96129.54
2019-01-10T11:22:48.923Z,96135.30
2019-01-10T11:23:52.219Z,96139.58
2019-01-10T11:24:55.514Z,96143.95
2019-01-10T11:25:58.797Z,96144.57
2019-01-10T11:27:02.161Z,96148.52
2019-01-10T11:28:06.066Z,96151.48
2019-01-10T11:29:09.426Z,96150.42
2019-01-10T11:30:15.533Z,96142.77
2019-01-10T11:31:18.820Z,96161.11
2019-01-10T11:32:22.107Z,96156.37
2019-01-10T11:33:25.528Z,96152.66
2019-01-10T11:34:28.813Z,96148.85
2019-01-10T11:35:32.110Z,96142.79
2019-01-10T11:36:35.453Z,96142.31
2019-01-10T11:37:38.743Z,96142.84
2019-01-10T11:38:42.146Z,96141.45
2019-01-10T11:39:45.518Z,96129.20
2019-01-10T11:40:48.795Z,96127.83
2019-01-10T11:41:52.084Z,96124.31
2019-01-10T11:42:55.378Z,96120.83
2019-01-10T11:43:58.711Z,96107.64
2019-01-10T11:45:02.024Z,96100.50
2019-01-10T11:46:05.427Z,96105.11
2019-01-10T11:47:08.724Z,96113.20
2019-01-10T11:48:12.012Z,96108.20
2019-01-10T11:49:15.499Z,96113.45
2019-01-10T11:50:18.795Z,96112.27
2019-01-10T11:51:22.433Z,96105.64
2019-01-10T11:52:25.722Z,96105.19
2019-01-10T11:53:35.465Z,96110.47
2019-01-10T11:54:34.169Z,96110.66
2019-01-10T11:55:37.458Z,96110.48
2019-01-10T11:56:40.821Z,96107.50
2019-01-10T11:57:44.499Z,96110.20
2019-01-10T11:58:47.780Z,96110.39
2019-01-10T11:59:51.100Z,96114.93
2019-01-10T12:00:54.482Z,96112.29
2019-01-10T12:01:58.103Z,96110.94
2019-01-10T12:03:01.386Z,96101.77
2019-01-10T12:04:04.690Z,96104.25
2019-01-10T12:05:09.135Z,96107.05
2019-01-10T12:06:12.514Z,96106.57
2019-01-10T12:07:15.804Z,96106.98
2019-01-10T12:08:19.102Z,96110.56
2019-01-10T12:09:22.398Z,96106.61
2019-01-10T12:10:25.994Z,96112.69
2019-01-10T12:11:29.297Z,96107.61
2019-01-10T12:12:32.666Z,96110.78
2019-01-10T12:13:36.007Z,96111.70
2019-01-10T12:14:39.296Z,96116.83
2019-01-10T12:15:42.623Z,96113.71
2019-01-10T12:16:45.985Z,96108.69
2019-01-10T12:17:49.348Z,96103.56
2019-01-10T12:18:59.158Z,96109.77
2019-01-10T12:19:57.823Z,96120.03
2019-01-10T12:21:01.145Z,96123.48
2019-01-10T12:22:04.447Z,96128.09
2019-01-10T12:23:07.814Z,96119.91
2019-01-10T12:24:11.107Z,96115.51
2019-01-10T12:25:16.343Z,96095.66
2019-01-10T12:26:19.765Z,96089.39